createdAt,value
2019-01-29T00:00:29.721Z,99416.48
2019-01-29T00:01:31.041Z,99414.63
2019-01-29T00:02:32.288Z,99416.48
2019-01-29T00:03:33.514Z,99411.63
2019-01-29T00:04:34.627Z,99416.65
2019-01-29T00:05:35.740Z,99415.31
2019-01-29T00:06:36.852Z,99417.16
2019-01-29T00:07:37.975Z,99415.50
2019-01-29T00:08:39.088Z,99417.66
2019-01-29T00:09:40.199Z,99418.17
2019-01-29T00:10:41.318Z,99416.51
2019-01-29T00:11:42.427Z,99414.66
2019-01-29T00:12:43.555Z,99412.99
2019-01-29T00:13:44.668Z,99415.17
2019-01-29T00:14:45.785Z,99409.83
2019-01-29T00:15:46.892Z,99415.17
2019-01-29T00:16:48.001Z,99410.32
2019-01-29T00:17:49.149Z,99407.16
2019-01-29T00:18:50.260Z,99412.17
2019-01-29T00:19:51.379Z,99407.16
2019-01-29T00:20:52.494Z,99409.50
2019-01-29T00:21:53.713Z,99412.50
2019-01-29T00:22:54.837Z,99412.99
2019-01-29T00:23:55.951Z,99408.66
2019-01-29T00:24:57.064Z,99417.52
2019-01-29T00:25:58.193Z,99410.52
2019-01-29T00:26:59.308Z,99408.66
2019-01-29T00:28:00.429Z,99409.17
2019-01-29T00:29:01.544Z,99408.66
2019-01-29T00:30:06.260Z,99407.52
2019-01-29T00:31:07.377Z,99407.52
2019-01-29T00:32:08.491Z,99402.17
2019-01-29T00:33:09.682Z,99403.99
2019-01-29T00:34:10.836Z,99407.19
2019-01-29T00:35:12.448Z,99407.19
2019-01-29T00:36:13.668Z,99404.52
2019-01-29T00:37:14.781Z,99399.50
2019-01-29T00:38:16.012Z,99404.19
2019-01-29T00:39:17.130Z,99400.51
2019-01-29T00:40:18.232Z,99397.52
2019-01-29T00:41:19.346Z,99401.00
2019-01-29T00:42:20.453Z,99397.52
2019-01-29T00:43:21.604Z,99405.16
2019-01-29T00:44:22.742Z,99401.16
2019-01-29T00:45:23.856Z,99401.16
2019-01-29T00:46:24.964Z,99406.00
2019-01-29T00:47:26.081Z,99402.16
2019-01-29T00:48:27.356Z,99398.16
2019-01-29T00:49:28.613Z,99399.49
2019-01-29T00:50:29.677Z,99400.34
2019-01-29T00:51:31.337Z,99402.34
2019-01-29T00:52:32.432Z,99400.02
2019-01-29T00:53:33.598Z,99399.16
2019-01-29T00:54:34.719Z,99405.34
2019-01-29T00:55:35.933Z,99394.34
2019-01-29T00:56:37.047Z,99398.83
2019-01-29T00:57:38.153Z,99396.68
2019-01-29T00:58:39.410Z,99393.16
2019-01-29T00:59:40.529Z,99392.67
2019-01-29T01:00:41.775Z,99397.17
2019-01-29T01:01:42.988Z,99395.50
2019-01-29T01:02:44.406Z,99390.16
2019-01-29T01:03:45.540Z,99388.02
2019-01-29T01:04:46.756Z,99390.49
2019-01-29T01:05:47.969Z,99392.84
2019-01-29T01:06:49.180Z,99393.36
2019-01-29T01:07:50.299Z,99392.50
2019-01-29T01:08:51.527Z,99392.50
2019-01-29T01:09:57.256Z,99393.84
2019-01-29T01:10:55.756Z,99394.84
2019-01-29T01:11:56.876Z,99392.70
2019-01-29T01:12:57.991Z,99395.17
2019-01-29T01:13:59.116Z,99390.52
2019-01-29T01:15:00.238Z,99387.36
2019-01-29T01:16:01.333Z,99386.18
2019-01-29T01:17:02.546Z,99386.51
2019-01-29T01:18:03.756Z,99383.52
2019-01-29T01:19:04.877Z,99380.84
2019-01-29T01:20:09.592Z,99388.36
2019-01-29T01:21:10.708Z,99383.84
2019-01-29T01:22:11.921Z,99387.03
2019-01-29T01:23:13.037Z,99387.84
2019-01-29T01:24:14.264Z,99385.70
2019-01-29T01:25:15.673Z,99387.03
2019-01-29T01:26:16.785Z,99384.84
2019-01-29T01:27:17.897Z,99386.51
2019-01-29T01:28:19.010Z,99387.84
2019-01-29T01:29:20.277Z,99384.52
2019-01-29T01:30:21.348Z,99386.70
2019-01-29T01:31:22.456Z,99393.86
2019-01-29T01:32:23.574Z,99389.52
2019-01-29T01:33:24.690Z,99387.19
2019-01-29T01:34:25.844Z,99386.38
2019-01-29T01:35:27.060Z,99390.05
2019-01-29T01:36:28.282Z,99394.87
2019-01-29T01:37:29.388Z,99393.72
2019-01-29T01:38:30.503Z,99392.20
2019-01-29T01:39:31.923Z,99383.86
2019-01-29T01:40:33.041Z,99385.20
2019-01-29T01:41:34.258Z,99390.86
2019-01-29T01:42:35.371Z,99382.52
2019-01-29T01:43:36.484Z,99380.86
2019-01-29T01:44:37.642Z,99387.53
2019-01-29T01:45:38.752Z,99382.52
2019-01-29T01:46:39.862Z,99386.53
2019-01-29T01:47:40.968Z,99378.52
2019-01-29T01:48:42.083Z,99378.52
2019-01-29T01:49:43.209Z,99372.85
2019-01-29T01:50:44.320Z,99369.70
2019-01-29T01:51:45.431Z,99364.84
2019-01-29T01:52:46.544Z,99374.19
2019-01-29T01:53:47.660Z,99374.19
2019-01-29T01:54:48.789Z,99368.52
2019-01-29T01:55:50.007Z,99372.52
2019-01-29T01:56:51.124Z,99372.03
2019-01-29T01:57:52.236Z,99375.19
2019-01-29T01:58:53.349Z,99371.19
2019-01-29T01:59:54.501Z,99376.04
2019-01-29T02:00:55.688Z,99375.19
2019-01-29T02:01:56.814Z,99374.86
2019-01-29T02:02:57.923Z,99365.52
2019-01-29T02:03:59.087Z,99371.70
2019-01-29T02:05:00.368Z,99379.20
2019-01-29T02:06:01.475Z,99375.72
2019-01-29T02:07:02.584Z,99372.52
2019-01-29T02:08:03.729Z,99371.19
2019-01-29T02:09:07.212Z,99374.19
2019-01-29T02:10:12.035Z,99372.03
2019-01-29T02:11:13.150Z,99378.19
2019-01-29T02:12:14.561Z,99370.86
2019-01-29T02:13:15.673Z,99367.19
2019-01-29T02:14:16.844Z,99368.52
2019-01-29T02:15:18.133Z,99365.52
2019-01-29T02:16:19.251Z,99364.19
2019-01-29T02:17:20.367Z,99361.52
2019-01-29T02:18:21.576Z,99366.37
2019-01-29T02:19:22.696Z,99361.52
2019-01-29T02:20:23.951Z,99365.52
2019-01-29T02:21:25.070Z,99363.86
2019-01-29T02:22:26.181Z,99363.05
2019-01-29T02:23:27.295Z,99364.70
2019-01-29T02:24:28.667Z,99366.52
2019-01-29T02:25:29.899Z,99360.53
2019-01-29T02:26:31.020Z,99359.53
2019-01-29T02:27:32.128Z,99357.86
2019-01-29T02:28:33.245Z,99360.05
2019-01-29T02:29:34.361Z,99364.05
2019-01-29T02:30:35.592Z,99359.20
2019-01-29T02:31:36.711Z,99367.20
2019-01-29T02:32:37.924Z,99362.20
2019-01-29T02:33:39.037Z,99362.20
2019-01-29T02:34:40.152Z,99358.19
2019-01-29T02:35:41.308Z,99365.19
2019-01-29T02:36:42.419Z,99362.72
2019-01-29T02:37:43.632Z,99359.85
2019-01-29T02:38:44.762Z,99362.52
2019-01-29T02:39:45.875Z,99357.70
2019-01-29T02:40:47.013Z,99357.86
2019-01-29T02:41:48.215Z,99357.86
2019-01-29T02:42:49.433Z,99359.72
2019-01-29T02:43:50.544Z,99365.87
2019-01-29T02:44:51.655Z,99361.86
2019-01-29T02:45:52.814Z,99363.72
2019-01-29T02:46:53.928Z,99361.86
2019-01-29T02:47:55.043Z,99358.38
2019-01-29T02:48:56.155Z,99361.54
2019-01-29T02:49:57.268Z,99357.53
2019-01-29T02:50:58.420Z,99354.38
2019-01-29T02:51:59.570Z,99350.86
2019-01-29T02:53:00.690Z,99355.19
2019-01-29T02:54:01.896Z,99353.05
2019-01-29T02:55:05.313Z,99359.72
2019-01-29T02:56:06.467Z,99352.52
2019-01-29T02:57:07.582Z,99359.72
2019-01-29T02:58:08.793Z,99356.53
2019-01-29T02:59:10.023Z,99364.86
2019-01-29T03:00:17.512Z,99361.86
2019-01-29T03:01:18.673Z,99361.05
2019-01-29T03:02:19.785Z,99363.20
2019-01-29T03:03:20.917Z,99363.20
2019-01-29T03:04:22.053Z,99364.53
2019-01-29T03:05:23.672Z,99354.70
2019-01-29T03:06:24.974Z,99360.53
2019-01-29T03:07:26.193Z,99356.53
2019-01-29T03:08:27.302Z,99355.71
2019-01-29T03:09:28.421Z,99356.53
2019-01-29T03:10:29.634Z,99358.38
2019-01-29T03:11:30.948Z,99357.53
2019-01-29T03:12:32.165Z,99359.72
2019-01-29T03:13:33.390Z,99360.20
2019-01-29T03:14:34.503Z,99359.72
2019-01-29T03:15:35.716Z,99360.53
2019-01-29T03:16:36.974Z,99357.05
2019-01-29T03:17:38.081Z,99355.71
2019-01-29T03:18:39.241Z,99351.71
2019-01-29T03:19:40.356Z,99353.53
2019-01-29T03:20:41.470Z,99350.38
2019-01-29T03:21:42.602Z,99345.52
2019-01-29T03:22:43.714Z,99352.20
2019-01-29T03:23:44.827Z,99356.20
2019-01-29T03:24:46.047Z,99350.05
2019-01-29T03:25:47.165Z,99353.53
2019-01-29T03:26:48.568Z,99360.20
2019-01-29T03:27:49.780Z,99356.20
2019-01-29T03:28:50.892Z,99355.19
2019-01-29T03:29:52.118Z,99354.86
2019-01-29T03:30:53.338Z,99356.20
2019-01-29T03:31:54.462Z,99359.88
2019-01-29T03:32:55.617Z,99364.20
2019-01-29T03:33:56.790Z,99357.53
2019-01-29T03:34:57.905Z,99358.38
2019-01-29T03:35:59.013Z,99358.88
2019-01-29T03:37:00.319Z,99357.05
2019-01-29T03:38:01.438Z,99359.72
2019-01-29T03:39:05.649Z,99364.05
2019-01-29T03:40:12.733Z,99366.39
2019-01-29T03:41:13.845Z,99360.20
2019-01-29T03:42:15.400Z,99365.87
2019-01-29T03:43:16.617Z,99363.20
2019-01-29T03:44:17.732Z,99358.88
2019-01-29T03:45:18.841Z,99359.72
2019-01-29T03:46:19.956Z,99355.71
2019-01-29T03:47:21.087Z,99358.54
2019-01-29T03:48:22.204Z,99366.39
2019-01-29T03:49:23.421Z,99362.88
2019-01-29T03:50:24.539Z,99364.20
2019-01-29T03:51:25.765Z,99366.88
2019-01-29T03:52:26.881Z,99367.87
2019-01-29T03:53:37.521Z,99361.05
2019-01-29T03:54:31.028Z,99369.22
2019-01-29T03:55:32.144Z,99366.06
2019-01-29T03:56:33.360Z,99361.20
2019-01-29T03:57:34.634Z,99363.06
2019-01-29T03:58:36.685Z,99366.55
2019-01-29T03:59:37.817Z,99367.06
2019-01-29T04:00:38.942Z,99363.39
2019-01-29T04:01:40.110Z,99368.89
2019-01-29T04:02:41.229Z,99370.55
2019-01-29T04:03:42.341Z,99374.06
2019-01-29T04:04:43.474Z,99369.22
2019-01-29T04:05:44.585Z,99373.22
2019-01-29T04:06:45.701Z,99368.21
2019-01-29T04:07:47.019Z,99373.22
2019-01-29T04:08:48.232Z,99363.05
2019-01-29T04:09:49.368Z,99368.73
2019-01-29T04:10:50.573Z,99371.88
2019-01-29T04:11:51.689Z,99368.73
2019-01-29T04:12:52.913Z,99371.40
2019-01-29T04:13:54.026Z,99374.88
2019-01-29T04:14:55.237Z,99368.73
2019-01-29T04:15:56.358Z,99368.73
2019-01-29T04:16:57.478Z,99368.73
2019-01-29T04:17:58.730Z,99370.06
2019-01-29T04:18:59.836Z,99367.87
2019-01-29T04:20:01.246Z,99368.73
2019-01-29T04:21:02.357Z,99366.88
2019-01-29T04:22:03.464Z,99369.55
2019-01-29T04:23:04.601Z,99363.39
2019-01-29T04:24:05.712Z,99374.06
2019-01-29T04:25:07.623Z,99370.06
2019-01-29T04:26:08.837Z,99368.21
2019-01-29T04:27:09.944Z,99365.55
2019-01-29T04:28:11.096Z,99363.20
2019-01-29T04:29:12.485Z,99369.22
2019-01-29T04:30:15.898Z,99363.88
2019-01-29T04:31:17.116Z,99363.39
2019-01-29T04:32:18.333Z,99368.73
2019-01-29T04:33:19.590Z,99366.88
2019-01-29T04:34:20.698Z,99369.39
2019-01-29T04:35:21.817Z,99372.22
2019-01-29T04:36:22.925Z,99366.88
2019-01-29T04:37:24.041Z,99362.88
2019-01-29T04:38:25.270Z,99363.39
2019-01-29T04:39:26.488Z,99366.39
2019-01-29T04:40:27.605Z,99361.20
2019-01-29T04:41:28.725Z,99360.20
2019-01-29T04:42:29.946Z,99366.88
2019-01-29T04:43:31.210Z,99358.38
2019-01-29T04:44:32.324Z,99366.88
2019-01-29T04:45:33.438Z,99362.05
2019-01-29T04:46:34.561Z,99362.39
2019-01-29T04:47:35.665Z,99364.20
2019-01-29T04:48:36.817Z,99364.20
2019-01-29T04:49:38.032Z,99370.39
2019-01-29T04:50:39.144Z,99366.39
2019-01-29T04:51:40.658Z,99367.72
2019-01-29T04:52:41.872Z,99366.06
2019-01-29T04:53:43.027Z,99363.39
2019-01-29T04:54:44.139Z,99366.55
2019-01-29T04:55:45.258Z,99365.37
2019-01-29T04:56:46.481Z,99363.55
2019-01-29T04:57:47.590Z,99374.72
2019-01-29T04:58:48.718Z,99369.89
2019-01-29T04:59:49.828Z,99368.23
2019-01-29T05:00:51.506Z,99365.23
2019-01-29T05:01:52.614Z,99371.05
2019-01-29T05:02:53.724Z,99365.91
2019-01-29T05:03:54.870Z,99367.24
2019-01-29T05:04:55.994Z,99365.58
2019-01-29T05:05:57.100Z,99362.91
2019-01-29T05:06:58.216Z,99365.25
2019-01-29T05:07:59.325Z,99367.59
2019-01-29T05:09:00.586Z,99360.73
2019-01-29T05:10:01.990Z,99367.07
2019-01-29T05:11:03.100Z,99367.07
2019-01-29T05:12:04.210Z,99360.92
2019-01-29T05:13:05.329Z,99366.58
2019-01-29T05:14:06.475Z,99356.91
2019-01-29T05:15:10.683Z,99367.59
2019-01-29T05:16:11.802Z,99364.07
2019-01-29T05:17:12.912Z,99361.92
2019-01-29T05:18:14.523Z,99362.73
2019-01-29T05:19:15.652Z,99364.59
2019-01-29T05:20:18.665Z,99359.25
2019-01-29T05:21:19.876Z,99368.59
2019-01-29T05:22:20.987Z,99362.73
2019-01-29T05:23:22.163Z,99374.59
2019-01-29T05:24:24.841Z,99367.59
2019-01-29T05:25:26.258Z,99370.59
2019-01-29T05:26:27.367Z,99369.73
2019-01-29T05:27:28.476Z,99365.25
2019-01-29T05:28:29.649Z,99367.92
2019-01-29T05:29:31.020Z,99367.73
2019-01-29T05:30:32.231Z,99365.25
2019-01-29T05:31:33.873Z,99368.58
2019-01-29T05:32:34.982Z,99366.91
2019-01-29T05:33:36.101Z,99366.39
2019-01-29T05:34:37.408Z,99364.05
2019-01-29T05:35:38.516Z,99363.40
2019-01-29T05:36:39.928Z,99361.58
2019-01-29T05:37:41.140Z,99365.91
2019-01-29T05:38:42.262Z,99357.91
2019-01-29T05:39:43.587Z,99356.23
2019-01-29T05:40:45.201Z,99359.72
2019-01-29T05:41:46.319Z,99365.58
2019-01-29T05:42:47.529Z,99355.23
2019-01-29T05:43:48.644Z,99362.23
2019-01-29T05:44:49.798Z,99362.72
2019-01-29T05:45:51.012Z,99357.05
2019-01-29T05:46:52.123Z,99363.72
2019-01-29T05:47:53.236Z,99363.23
2019-01-29T05:48:54.356Z,99364.05
2019-01-29T05:49:55.580Z,99365.58
2019-01-29T05:50:56.700Z,99362.91
2019-01-29T05:51:57.818Z,99371.25
2019-01-29T05:52:58.959Z,99365.91
2019-01-29T05:54:00.073Z,99363.56
2019-01-29T05:55:01.344Z,99364.91
2019-01-29T05:56:02.751Z,99368.91
2019-01-29T05:57:03.849Z,99361.91
2019-01-29T05:58:04.963Z,99366.72
2019-01-29T05:59:06.076Z,99365.39
2019-01-29T06:00:14.468Z,99368.91
2019-01-29T06:01:15.594Z,99360.57
2019-01-29T06:02:16.716Z,99361.39
2019-01-29T06:03:17.832Z,99360.57
2019-01-29T06:04:18.952Z,99363.56
2019-01-29T06:05:20.391Z,99359.05
2019-01-29T06:06:21.511Z,99357.71
2019-01-29T06:07:22.612Z,99359.05
2019-01-29T06:08:23.724Z,99360.22
2019-01-29T06:09:24.936Z,99356.55
2019-01-29T06:10:26.062Z,99360.39
2019-01-29T06:11:27.275Z,99361.37
2019-01-29T06:12:28.385Z,99362.20
2019-01-29T06:13:29.496Z,99364.03
2019-01-29T06:14:30.610Z,99365.34
2019-01-29T06:15:31.731Z,99364.14
2019-01-29T06:16:32.849Z,99362.30
2019-01-29T06:17:34.060Z,99360.13
2019-01-29T06:18:35.272Z,99364.11
2019-01-29T06:19:36.383Z,99361.09
2019-01-29T06:20:37.637Z,99367.73
2019-01-29T06:21:38.753Z,99369.05
2019-01-29T06:22:39.872Z,99369.84
2019-01-29T06:23:40.985Z,99369.33
2019-01-29T06:24:42.095Z,99377.31
2019-01-29T06:25:43.250Z,99369.63
2019-01-29T06:26:44.365Z,99369.12
2019-01-29T06:27:45.473Z,99373.59
2019-01-29T06:28:46.584Z,99368.57
2019-01-29T06:29:47.809Z,99372.88
2019-01-29T06:30:48.934Z,99376.33
2019-01-29T06:31:50.153Z,99366.63
2019-01-29T06:32:51.466Z,99381.45
2019-01-29T06:33:53.093Z,99373.40
2019-01-29T06:34:54.196Z,99376.37
2019-01-29T06:35:55.322Z,99374.18
2019-01-29T06:36:56.450Z,99378.97
2019-01-29T06:37:57.551Z,99379.30
2019-01-29T06:38:58.662Z,99381.93
2019-01-29T06:39:59.772Z,99378.38
2019-01-29T06:41:00.900Z,99381.86
2019-01-29T06:42:02.017Z,99376.14
2019-01-29T06:43:03.129Z,99376.27
2019-01-29T06:44:04.244Z,99379.75
2019-01-29T06:45:11.273Z,99380.23
2019-01-29T06:46:12.400Z,99382.02
2019-01-29T06:47:13.520Z,99378.66
2019-01-29T06:48:14.728Z,99381.30
2019-01-29T06:49:15.845Z,99381.94
2019-01-29T06:50:23.366Z,99374.27
2019-01-29T06:51:24.585Z,99381.97
2019-01-29T06:52:25.701Z,99371.91
2019-01-29T06:53:26.817Z,99381.92
2019-01-29T06:54:33.932Z,99389.59
2019-01-29T06:55:30.952Z,99382.37
2019-01-29T06:56:32.094Z,99387.88
2019-01-29T06:57:33.206Z,99382.33
2019-01-29T06:58:34.425Z,99386.98
2019-01-29T06:59:35.538Z,99390.84
2019-01-29T07:00:36.655Z,99390.31
2019-01-29T07:01:37.935Z,99384.80
2019-01-29T07:02:39.156Z,99385.93
2019-01-29T07:03:40.272Z,99388.11
2019-01-29T07:04:41.666Z,99386.78
2019-01-29T07:05:42.784Z,99387.91
2019-01-29T07:06:43.936Z,99387.09
2019-01-29T07:07:45.052Z,99395.77
2019-01-29T07:08:46.170Z,99394.44
2019-01-29T07:09:47.780Z,99397.44
2019-01-29T07:10:48.889Z,99400.44
2019-01-29T07:11:53.648Z,99405.79
2019-01-29T07:12:54.863Z,99406.64
2019-01-29T07:13:55.976Z,99406.11
2019-01-29T07:14:57.100Z,99412.64
2019-01-29T07:16:00.112Z,99368.91
2019-01-29T07:17:05.673Z,99410.08
2019-01-29T07:18:09.556Z,99418.44
2019-01-29T07:19:15.145Z,99417.10
2019-01-29T07:20:16.657Z,99416.09
2019-01-29T07:21:17.880Z,99420.42
2019-01-29T07:22:19.134Z,99417.58
2019-01-29T07:23:20.400Z,99418.06
2019-01-29T07:24:21.517Z,99419.41
2019-01-29T07:25:22.733Z,99418.39
2019-01-29T07:26:23.843Z,99418.39
2019-01-29T07:27:24.987Z,99414.37
2019-01-29T07:28:26.096Z,99416.89
2019-01-29T07:29:27.212Z,99420.05
2019-01-29T07:30:28.429Z,99416.89
2019-01-29T07:31:29.536Z,99412.02
2019-01-29T07:32:30.792Z,99424.39
2019-01-29T07:33:31.900Z,99423.38
2019-01-29T07:34:33.020Z,99424.39
2019-01-29T07:35:34.787Z,99425.73
2019-01-29T07:36:35.904Z,99416.03
2019-01-29T07:37:37.164Z,99418.72
2019-01-29T07:38:38.278Z,99427.07
2019-01-29T07:39:39.393Z,99420.38
2019-01-29T07:40:40.508Z,99424.39
2019-01-29T07:41:41.620Z,99425.73
2019-01-29T07:42:42.939Z,99423.05
2019-01-29T07:43:44.144Z,99425.73
2019-01-29T07:44:45.253Z,99428.73
2019-01-29T07:45:46.461Z,99432.75
2019-01-29T07:46:47.575Z,99432.75
2019-01-29T07:47:48.729Z,99435.26
2019-01-29T07:48:49.844Z,99441.10
2019-01-29T07:49:50.957Z,99430.07
2019-01-29T07:50:52.069Z,99430.39
2019-01-29T07:51:53.180Z,99439.27
2019-01-29T07:52:54.304Z,99439.77
2019-01-29T07:53:55.418Z,99438.42
2019-01-29T07:54:56.527Z,99442.27
2019-01-29T07:55:57.639Z,99442.77
2019-01-29T07:56:58.755Z,99445.44
2019-01-29T07:58:00.044Z,99446.78
2019-01-29T07:59:01.252Z,99448.77
2019-01-29T08:00:11.422Z,99451.13
2019-01-29T08:01:12.635Z,99448.44
2019-01-29T08:02:13.788Z,99450.30
2019-01-29T08:03:15.021Z,99444.10
2019-01-29T08:04:16.134Z,99451.81
2019-01-29T08:05:17.253Z,99452.34
2019-01-29T08:06:18.365Z,99452.02
2019-01-29T08:07:19.583Z,99451.48
2019-01-29T08:08:20.831Z,99453.84
2019-01-29T08:09:21.949Z,99454.16
2019-01-29T08:10:24.666Z,99450.34
2019-01-29T08:11:25.976Z,99449.50
2019-01-29T08:12:27.188Z,99451.53
2019-01-29T08:13:28.343Z,99456.39
2019-01-29T08:14:29.552Z,99463.58
2019-01-29T08:15:30.661Z,99457.73
2019-01-29T08:16:31.773Z,99461.75
2019-01-29T08:17:32.883Z,99463.58
2019-01-29T08:18:34.008Z,99460.91
2019-01-29T08:19:35.124Z,99459.56
2019-01-29T08:20:37.528Z,99460.41
2019-01-29T08:21:38.640Z,99462.56
2019-01-29T08:22:39.756Z,99464.22
2019-01-29T08:23:41.008Z,99463.91
2019-01-29T08:24:42.124Z,99471.94
2019-01-29T08:25:47.856Z,99467.92
2019-01-29T08:26:46.360Z,99462.07
2019-01-29T08:27:47.478Z,99468.44
2019-01-29T08:28:48.708Z,99464.92
2019-01-29T08:29:49.826Z,99471.12
2019-01-29T08:30:50.936Z,99468.61
2019-01-29T08:31:52.153Z,99470.80
2019-01-29T08:32:53.268Z,99469.45
2019-01-29T08:33:54.400Z,99477.66
2019-01-29T08:34:55.516Z,99472.30
2019-01-29T08:35:56.733Z,99476.31
2019-01-29T08:36:58.012Z,99486.02
2019-01-29T08:37:59.694Z,99481.34
2019-01-29T08:39:00.828Z,99481.34
2019-01-29T08:40:02.133Z,99473.31
2019-01-29T08:41:04.529Z,99481.34
2019-01-29T08:42:05.755Z,99481.34
2019-01-29T08:43:06.869Z,99480.53
2019-01-29T08:44:07.992Z,99482.36
2019-01-29T08:45:14.609Z,99478.34
2019-01-29T08:46:15.717Z,99479.68
2019-01-29T08:47:16.937Z,99490.39
2019-01-29T08:48:18.048Z,99483.37
2019-01-29T08:49:19.199Z,99487.06
2019-01-29T08:50:24.914Z,99489.73
2019-01-29T08:51:26.024Z,99494.28
2019-01-29T08:52:27.142Z,99490.75
2019-01-29T08:53:28.265Z,99495.09
2019-01-29T08:54:29.532Z,99490.75
2019-01-29T08:55:30.749Z,99498.78
2019-01-29T08:56:31.860Z,99497.13
2019-01-29T08:57:32.978Z,99501.66
2019-01-29T08:58:34.204Z,99504.83
2019-01-29T08:59:35.361Z,99499.47
2019-01-29T09:00:36.473Z,99503.48
2019-01-29T09:01:37.589Z,99504.50
2019-01-29T09:02:38.713Z,99507.17
2019-01-29T09:03:39.836Z,99505.02
2019-01-29T09:04:40.967Z,99511.72
2019-01-29T09:05:42.088Z,99513.55
2019-01-29T09:06:43.204Z,99509.20
2019-01-29T09:07:44.420Z,99506.69
2019-01-29T09:08:46.202Z,99511.88
2019-01-29T09:09:47.332Z,99504.87
2019-01-29T09:10:48.442Z,99507.55
2019-01-29T09:11:49.550Z,99503.20
2019-01-29T09:12:50.660Z,99505.35
2019-01-29T09:13:51.775Z,99499.19
2019-01-29T09:14:52.928Z,99503.37
2019-01-29T09:15:54.036Z,99509.89
2019-01-29T09:16:55.261Z,99507.05
2019-01-29T09:17:56.375Z,99506.73
2019-01-29T09:18:57.490Z,99510.58
2019-01-29T09:19:58.612Z,99504.58
2019-01-29T09:20:59.723Z,99504.38
2019-01-29T09:22:00.938Z,99508.27
2019-01-29T09:23:02.152Z,99505.91
2019-01-29T09:24:03.360Z,99509.60
2019-01-29T09:25:08.112Z,99514.11
2019-01-29T09:26:09.221Z,99504.25
2019-01-29T09:27:10.334Z,99512.45
2019-01-29T09:28:11.457Z,99512.45
2019-01-29T09:29:17.665Z,99513.98
2019-01-29T09:30:17.198Z,99510.30
2019-01-29T09:31:18.314Z,99511.80
2019-01-29T09:32:19.420Z,99513.98
2019-01-29T09:33:20.548Z,99518.48
2019-01-29T09:34:21.649Z,99522.17
2019-01-29T09:35:22.800Z,99513.66
2019-01-29T09:36:23.913Z,99517.34
2019-01-29T09:37:25.020Z,99521.36
2019-01-29T09:38:26.238Z,99524.52
2019-01-29T09:39:27.353Z,99521.68
2019-01-29T09:40:28.580Z,99516.00
2019-01-29T09:41:29.796Z,99520.02
2019-01-29T09:42:31.013Z,99514.83
2019-01-29T09:43:32.123Z,99514.83
2019-01-29T09:44:33.228Z,99522.53
2019-01-29T09:45:34.508Z,99528.73
2019-01-29T09:46:35.720Z,99527.39
2019-01-29T09:47:36.835Z,99534.09
2019-01-29T09:48:37.948Z,99534.09
2019-01-29T09:49:39.171Z,99534.09
2019-01-29T09:50:40.294Z,99531.41
2019-01-29T09:51:41.511Z,99536.76
2019-01-29T09:52:42.726Z,99533.23
2019-01-29T09:53:43.836Z,99536.76
2019-01-29T09:54:44.943Z,99538.09
2019-01-29T09:55:46.099Z,99542.92
2019-01-29T09:56:47.313Z,99542.44
2019-01-29T09:57:48.721Z,99542.77
2019-01-29T09:58:49.850Z,99544.43
2019-01-29T09:59:50.945Z,99544.43
2019-01-29T10:00:52.073Z,99543.09
2019-01-29T10:01:53.294Z,99547.43
2019-01-29T10:02:54.416Z,99542.77
2019-01-29T10:03:55.534Z,99548.11
2019-01-29T10:04:56.646Z,99546.78
2019-01-29T10:05:57.885Z,99542.24
2019-01-29T10:06:59.100Z,99541.59
2019-01-29T10:08:00.210Z,99550.95
2019-01-29T10:09:01.428Z,99548.80
2019-01-29T10:10:05.346Z,99550.95
2019-01-29T10:11:06.572Z,99546.13
2019-01-29T10:12:07.685Z,99548.47
2019-01-29T10:13:08.802Z,99549.48
2019-01-29T10:14:10.012Z,99551.64
2019-01-29T10:15:17.572Z,99549.98
2019-01-29T10:16:18.702Z,99549.98
2019-01-29T10:17:20.124Z,99549.16
2019-01-29T10:18:21.237Z,99553.17
2019-01-29T10:19:22.352Z,99555.00
2019-01-29T10:20:24.068Z,99558.00
2019-01-29T10:21:25.224Z,99558.20
2019-01-29T10:22:26.443Z,99562.54
2019-01-29T10:23:27.552Z,99558.20
2019-01-29T10:24:28.776Z,99561.37
2019-01-29T10:25:37.422Z,99558.69
2019-01-29T10:26:33.064Z,99560.55
2019-01-29T10:27:34.176Z,99560.55
2019-01-29T10:28:35.294Z,99561.89
2019-01-29T10:29:36.410Z,99565.91
2019-01-29T10:30:37.624Z,99559.53
2019-01-29T10:31:38.750Z,99563.23
2019-01-29T10:32:39.856Z,99560.55
2019-01-29T10:33:41.081Z,99555.69
2019-01-29T10:34:42.201Z,99556.53
2019-01-29T10:35:43.418Z,99559.21
2019-01-29T10:36:44.665Z,99560.88
2019-01-29T10:37:45.776Z,99560.88
2019-01-29T10:38:46.887Z,99562.22
2019-01-29T10:39:48.001Z,99562.22
2019-01-29T10:40:49.121Z,99558.20
2019-01-29T10:41:50.549Z,99560.55
2019-01-29T10:42:51.964Z,99561.37
2019-01-29T10:43:53.077Z,99564.89
2019-01-29T10:44:54.192Z,99560.88
2019-01-29T10:45:55.310Z,99558.36
2019-01-29T10:46:56.451Z,99557.55
2019-01-29T10:47:57.563Z,99556.53
2019-01-29T10:48:58.680Z,99555.20
2019-01-29T10:49:59.799Z,99553.01
2019-01-29T10:51:00.990Z,99553.01
2019-01-29T10:52:02.548Z,99553.01
2019-01-29T10:53:03.652Z,99555.69
2019-01-29T10:54:05.060Z,99561.89
2019-01-29T10:55:07.588Z,99561.89
2019-01-29T10:56:08.688Z,99561.89
2019-01-29T10:57:10.189Z,99567.23
2019-01-29T10:58:11.377Z,99572.27
2019-01-29T10:59:12.694Z,99567.73
2019-01-29T11:00:16.406Z,99572.07
2019-01-29T11:01:17.512Z,99573.41
2019-01-29T11:02:18.767Z,99572.07
2019-01-29T11:03:19.893Z,99568.91
2019-01-29T11:04:21.008Z,99564.56
2019-01-29T11:05:22.320Z,99562.38
2019-01-29T11:06:23.548Z,99572.59
2019-01-29T11:07:24.696Z,99566.91
2019-01-29T11:08:25.816Z,99566.91
2019-01-29T11:09:26.927Z,99574.61
2019-01-29T11:10:28.149Z,99581.63
2019-01-29T11:11:29.270Z,99574.09
2019-01-29T11:12:30.493Z,99579.11
2019-01-29T11:13:31.615Z,99581.30
2019-01-29T11:14:32.726Z,99582.64
2019-01-29T11:15:36.240Z,99577.94
2019-01-29T11:16:37.347Z,99582.28
2019-01-29T11:17:38.497Z,99580.13
2019-01-29T11:18:39.712Z,99582.28
2019-01-29T11:19:40.824Z,99583.62
2019-01-29T11:20:41.938Z,99583.29
2019-01-29T11:21:43.051Z,99585.97
2019-01-29T11:22:44.196Z,99582.97
2019-01-29T11:23:45.312Z,99586.98
2019-01-29T11:24:46.438Z,99582.11
2019-01-29T11:25:55.401Z,99582.61
2019-01-29T11:26:50.553Z,99584.30
2019-01-29T11:27:51.707Z,99586.12
2019-01-29T11:28:52.816Z,99584.79
2019-01-29T11:29:53.934Z,99590.63
2019-01-29T11:30:55.144Z,99584.46
2019-01-29T11:31:56.255Z,99592.16
2019-01-29T11:32:57.411Z,99592.98
2019-01-29T11:33:58.520Z,99600.67
2019-01-29T11:34:59.627Z,99598.00
2019-01-29T11:36:00.740Z,99599.02
2019-01-29T11:37:01.853Z,99595.52
2019-01-29T11:38:03.806Z,99600.88
2019-01-29T11:39:07.122Z,99602.70
2019-01-29T11:40:17.946Z,99602.70
2019-01-29T11:41:19.847Z,99595.69
2019-01-29T11:42:21.083Z,99597.02
2019-01-29T11:43:22.208Z,99595.02
2019-01-29T11:44:23.524Z,99597.02
2019-01-29T11:45:30.167Z,99595.02
2019-01-29T11:46:31.275Z,99600.70
2019-01-29T11:47:32.384Z,99597.70
2019-01-29T11:48:33.617Z,99600.38
2019-01-29T11:49:34.727Z,99597.70
2019-01-29T11:50:35.940Z,99602.73
2019-01-29T11:51:37.053Z,99606.25
2019-01-29T11:52:38.268Z,99607.26
2019-01-29T11:53:39.505Z,99603.41
2019-01-29T11:54:40.619Z,99610.75
2019-01-29T11:55:41.828Z,99612.41
2019-01-29T11:56:42.944Z,99606.73
2019-01-29T11:57:44.057Z,99613.27
2019-01-29T11:58:45.334Z,99612.41
2019-01-29T11:59:46.644Z,99613.27
2019-01-29T12:00:55.508Z,99613.27